createdAt,value
2017-04-09T00:00:28.075Z,61.95
2017-04-09T00:01:38.411Z,61.95
2017-04-09T00:02:48.485Z,61.95
2017-04-09T00:03:58.515Z,62.24
2017-04-09T00:05:08.523Z,61.86
2017-04-09T00:06:18.853Z,61.95
2017-04-09T00:07:29.191Z,61.95
2017-04-09T00:08:38.912Z,61.95
2017-04-09T00:09:48.938Z,62.24
2017-04-09T00:10:58.952Z,61.95
2017-04-09T00:12:09.301Z,61.86
2017-04-09T00:13:19.017Z,61.92
2017-04-09T00:14:29.409Z,62.21
2017-04-09T00:15:39.732Z,62.02
2017-04-09T00:16:50.073Z,62.02
2017-04-09T00:18:00.416Z,62.02
2017-04-09T00:19:10.449Z,62.11
2017-04-09T00:20:20.777Z,62.02
2017-04-09T00:21:31.121Z,61.92
2017-04-09T00:22:41.468Z,62.21
2017-04-09T00:23:51.480Z,62.11
2017-04-09T00:25:01.806Z,61.83
2017-04-09T00:26:12.142Z,62.11
2017-04-09T00:27:22.484Z,61.83
2017-04-09T00:28:32.821Z,61.83
2017-04-09T00:29:43.162Z,62.11
2017-04-09T00:30:53.539Z,62.21
2017-04-09T00:32:03.262Z,62.21
2017-04-09T00:33:13.286Z,62.02
2017-04-09T00:34:22.994Z,62.11
2017-04-09T00:35:33.327Z,62.11
2017-04-09T00:36:43.355Z,61.92
2017-04-09T00:37:53.360Z,62.02
2017-04-09T00:39:03.392Z,62.11
2017-04-09T00:40:13.148Z,62.11
2017-04-09T00:41:22.857Z,62.11
2017-04-09T00:42:33.192Z,62.02
2017-04-09T00:43:43.758Z,61.92
2017-04-09T00:44:54.081Z,61.92
2017-04-09T00:46:04.105Z,62.02
2017-04-09T00:47:14.116Z,61.92
2017-04-09T00:48:24.447Z,61.92
2017-04-09T00:49:34.771Z,62.02
2017-04-09T00:50:45.153Z,62.02
2017-04-09T00:51:55.480Z,61.83
2017-04-09T00:53:05.813Z,61.92
2017-04-09T00:54:15.840Z,61.92
2017-04-09T00:55:26.160Z,61.92
2017-04-09T00:56:36.493Z,61.92
2017-04-09T00:57:46.514Z,62.21
2017-04-09T00:58:56.853Z,62.02
2017-04-09T01:00:06.892Z,62.11
2017-04-09T01:01:17.215Z,61.92
2017-04-09T01:02:27.250Z,62.08
2017-04-09T01:03:36.953Z,61.99
2017-04-09T01:04:47.041Z,62.18
2017-04-09T01:05:57.381Z,61.99
2017-04-09T01:07:07.408Z,62.18
2017-04-09T01:08:17.754Z,61.7
2017-04-09T01:09:28.106Z,61.6
2017-04-09T01:10:37.843Z,61.6
2017-04-09T01:11:47.856Z,61.8
2017-04-09T01:12:58.191Z,62.18
2017-04-09T01:14:08.529Z,62.18
2017-04-09T01:15:18.859Z,62.08
2017-04-09T01:16:29.180Z,62.18
2017-04-09T01:17:39.519Z,61.99
2017-04-09T01:18:49.880Z,62.27
2017-04-09T01:20:00.225Z,61.99
2017-04-09T01:21:10.545Z,62.18
2017-04-09T01:22:20.562Z,62.18
2017-04-09T01:23:30.872Z,62.08
2017-04-09T01:24:40.595Z,62.18
2017-04-09T01:25:50.916Z,62.18
2017-04-09T01:27:01.249Z,62.18
2017-04-09T01:28:11.588Z,61.8
2017-04-09T01:29:21.596Z,61.6
2017-04-09T01:30:31.925Z,61.57
2017-04-09T01:31:42.264Z,61.6
2017-04-09T01:32:52.292Z,61.6
2017-04-09T01:34:02.627Z,62.08
2017-04-09T01:35:12.665Z,61.67
2017-04-09T01:36:22.683Z,61.48
2017-04-09T01:37:33.007Z,61.57
2017-04-09T01:38:42.405Z,62.05
2017-04-09T01:39:52.766Z,62.05
2017-04-09T01:41:02.817Z,61.57
2017-04-09T01:42:12.834Z,61.57
2017-04-09T01:43:23.203Z,61.57
2017-04-09T01:44:33.537Z,61.57
2017-04-09T01:45:43.875Z,61.57
2017-04-09T01:46:53.888Z,61.57
2017-04-09T01:48:04.232Z,61.76
2017-04-09T01:49:14.554Z,61.38
2017-04-09T01:50:24.582Z,61.86
2017-04-09T01:51:34.920Z,61.76
2017-04-09T01:52:44.940Z,61.38
2017-04-09T01:53:55.276Z,61.48
2017-04-09T01:55:05.598Z,61.57
2017-04-09T01:56:15.928Z,61.48
2017-04-09T01:57:26.258Z,61.48
2017-04-09T01:58:36.593Z,61.86
2017-04-09T01:59:46.916Z,61.38
2017-04-09T02:00:57.267Z,61.67
2017-04-09T02:02:07.279Z,61.48
2017-04-09T02:03:17.296Z,61.48
2017-04-09T02:04:27.629Z,61.48
2017-04-09T02:05:37.643Z,61.38
2017-04-09T02:06:47.970Z,61.86
2017-04-09T02:07:58.325Z,61.96
2017-04-09T02:09:08.666Z,62.05
2017-04-09T02:10:19.047Z,61.57
2017-04-09T02:11:29.114Z,61.57
2017-04-09T02:12:39.453Z,61.67
2017-04-09T02:13:49.795Z,61.76
2017-04-09T02:14:59.808Z,61.67
2017-04-09T02:16:09.829Z,61.57
2017-04-09T02:17:20.178Z,61.57
2017-04-09T02:18:30.194Z,61.57
2017-04-09T02:19:40.216Z,61.57
2017-04-09T02:20:49.918Z,61.38
2017-04-09T02:22:00.257Z,62.15
2017-04-09T02:23:10.269Z,62.15
2017-04-09T02:24:20.596Z,62.05
2017-04-09T02:25:30.644Z,62.05
2017-04-09T02:26:40.665Z,61.57
2017-04-09T02:27:50.997Z,62.15
2017-04-09T02:29:01.023Z,62.05
2017-04-09T02:30:11.355Z,61.93
2017-04-09T02:31:21.373Z,62.15
2017-04-09T02:32:31.436Z,61.96
2017-04-09T02:33:41.466Z,62.15
2017-04-09T02:34:51.802Z,62.24
2017-04-09T02:36:02.134Z,61.86
2017-04-09T02:37:12.156Z,62.15
2017-04-09T02:38:22.494Z,61.86
2017-04-09T02:39:32.240Z,61.93
2017-04-09T02:40:42.577Z,61.93
2017-04-09T02:41:52.923Z,62.12
2017-04-09T02:43:02.944Z,62.02
2017-04-09T02:44:12.660Z,61.83
2017-04-09T02:45:22.679Z,62.02
2017-04-09T02:46:33.009Z,61.93
2017-04-09T02:47:43.365Z,61.93
2017-04-09T02:48:53.373Z,62.02
2017-04-09T02:50:03.701Z,61.93
2017-04-09T02:51:13.768Z,61.93
2017-04-09T02:52:24.098Z,62.12
2017-04-09T02:53:34.463Z,62.12
2017-04-09T02:54:44.186Z,62.02
2017-04-09T02:55:54.510Z,61.93
2017-04-09T02:57:04.539Z,61.83
2017-04-09T02:58:14.872Z,62.12
2017-04-09T02:59:25.203Z,62.12
2017-04-09T03:00:35.563Z,62.12
2017-04-09T03:01:45.902Z,62.02
2017-04-09T03:32:33.667Z,60.13
2017-04-09T03:33:43.991Z,61.17
2017-04-09T03:34:54.308Z,61.93
2017-04-09T03:36:04.676Z,62.12
2017-04-09T03:37:14.382Z,62.88
2017-04-09T03:38:24.392Z,62.69
2017-04-09T03:39:34.438Z,63.17
2017-04-09T03:40:44.444Z,63.35
2017-04-09T03:41:54.466Z,63.2
2017-04-09T03:43:04.828Z,63.48
2017-04-09T03:44:15.149Z,63.39
2017-04-09T03:45:25.488Z,63.2
2017-04-09T03:46:35.823Z,63.42
2017-04-09T03:47:45.829Z,63.13
2017-04-09T03:48:55.847Z,62.75
2017-04-09T03:50:06.184Z,62.85
2017-04-09T03:51:16.191Z,62.65
2017-04-09T03:52:26.206Z,63.17
2017-04-09T03:53:36.549Z,62.88
2017-04-09T03:54:46.569Z,62.59
2017-04-09T03:55:56.889Z,62.02
2017-04-09T03:57:07.213Z,62.3
2017-04-09T03:58:17.532Z,62.12
2017-04-09T03:59:27.848Z,62.3
2017-04-09T04:00:37.864Z,61.83
2017-04-09T04:01:48.186Z,61.96
2017-04-09T04:02:58.207Z,61.48
2017-04-09T04:04:08.556Z,61.67
2017-04-09T04:05:18.883Z,61.77
2017-04-09T04:06:29.217Z,62.05
2017-04-09T04:07:39.548Z,61.48
2017-04-09T04:08:49.887Z,61.48
2017-04-09T04:10:00.208Z,61.96
2017-04-09T04:11:10.546Z,61.29
2017-04-09T04:12:20.872Z,61.38
2017-04-09T04:13:31.208Z,61.38
2017-04-09T04:14:41.529Z,61.67
2017-04-09T04:15:51.858Z,61.48
2017-04-09T04:17:01.562Z,61.58
2017-04-09T04:18:11.904Z,61.58
2017-04-09T04:19:22.241Z,61.58
2017-04-09T04:20:32.257Z,61.38
2017-04-09T04:21:42.586Z,61.58
2017-04-09T04:22:52.602Z,61.58
2017-04-09T04:24:02.328Z,61.58
2017-04-09T04:25:12.669Z,61.58
2017-04-09T04:26:23.004Z,61.58
2017-04-09T04:27:33.327Z,60.82
2017-04-09T04:28:43.641Z,61.19
2017-04-09T04:29:53.667Z,61.19
2017-04-09T04:31:03.983Z,61.04
2017-04-09T04:32:14.306Z,61
2017-04-09T04:33:24.312Z,61.22
2017-04-09T04:34:34.631Z,60.56
2017-04-09T04:35:44.956Z,60.27
2017-04-09T04:36:54.983Z,60.21
2017-04-09T04:38:05.319Z,60.21
2017-04-09T04:39:15.326Z,60.21
2017-04-09T04:40:25.329Z,59.95
2017-04-09T04:41:35.060Z,60.33
2017-04-09T04:42:45.398Z,59.67
2017-04-09T04:43:55.739Z,59.79
2017-04-09T04:45:06.074Z,59.99
2017-04-09T04:46:16.411Z,59.7
2017-04-09T04:47:26.748Z,59.92
2017-04-09T04:48:36.779Z,60.02
2017-04-09T04:49:47.166Z,59.82
2017-04-09T04:50:57.502Z,59.82
2017-04-09T04:52:07.541Z,60.04
2017-04-09T04:53:17.560Z,59.76
2017-04-09T04:54:27.959Z,60.14
2017-04-09T04:55:37.984Z,59.88
2017-04-09T04:56:48.340Z,59.88
2017-04-09T04:57:58.677Z,59.78
2017-04-09T04:59:08.699Z,59.88
2017-04-09T05:00:18.733Z,59.78
2017-04-09T05:01:29.049Z,59.88
2017-04-09T05:02:39.395Z,60.2
2017-04-09T05:03:49.722Z,60.1
2017-04-09T05:05:00.040Z,60.39
2017-04-09T05:06:10.362Z,60.23
2017-04-09T05:07:20.635Z,59.84
2017-04-09T05:08:30.658Z,60.23
2017-04-09T05:09:40.999Z,60.61
2017-04-09T05:10:51.336Z,60.23
2017-04-09T05:12:01.664Z,60.16
2017-04-09T05:13:12.001Z,60.06
2017-04-09T05:14:22.017Z,60.26
2017-04-09T05:15:32.032Z,60.16
2017-04-09T05:16:42.064Z,60.16
2017-04-09T05:17:52.090Z,60.19
2017-04-09T05:19:02.424Z,60.58
2017-04-09T05:20:12.450Z,60.41
2017-04-09T05:21:22.796Z,60.61
2017-04-09T05:22:32.819Z,60.61
2017-04-09T05:23:43.162Z,60.44
2017-04-09T05:24:53.491Z,60.89
2017-04-09T05:26:03.825Z,62.04
2017-04-09T05:27:14.170Z,61.91
2017-04-09T05:28:23.872Z,62.4
2017-04-09T05:29:34.220Z,63.03
2017-04-09T05:30:44.251Z,63.13
2017-04-09T05:31:54.283Z,62.94
2017-04-09T05:33:04.299Z,62.84
2017-04-09T05:34:14.320Z,62.37
2017-04-09T05:35:24.648Z,62.08
2017-04-09T05:36:34.999Z,62.37
2017-04-09T05:37:45.342Z,61.12
2017-04-09T05:38:55.360Z,60.38
2017-04-09T05:40:05.389Z,60.32
2017-04-09T05:41:15.657Z,60.51
2017-04-09T05:42:25.689Z,60.7
2017-04-09T05:43:35.720Z,61.25
2017-04-09T05:44:46.080Z,61.54
2017-04-09T05:45:56.103Z,61.6
2017-04-09T05:47:06.165Z,61.79
2017-04-09T05:48:16.484Z,62.08
2017-04-09T05:49:25.889Z,61.88
2017-04-09T05:50:36.217Z,60.96
2017-04-09T05:51:46.243Z,60.67
2017-04-09T05:58:35.578Z,61.72
2017-04-09T05:59:45.596Z,60.48
2017-04-09T06:00:55.939Z,60.8
2017-04-09T06:02:06.280Z,60.51
2017-04-09T06:03:16.622Z,60.99
2017-04-09T06:04:26.950Z,61.25
2017-04-09T06:05:36.976Z,61.63
2017-04-09T06:06:46.694Z,60.77
2017-04-09T06:07:57.069Z,60.51
2017-04-09T06:09:07.402Z,60.51
2017-04-09T06:10:17.134Z,60.8
2017-04-09T06:11:27.475Z,60.8
2017-04-09T06:12:37.813Z,60.99
2017-04-09T06:13:48.148Z,61.28
2017-04-09T06:14:58.491Z,61.44
2017-04-09T06:16:08.891Z,61.57
2017-04-09T06:17:19.224Z,61.47
2017-04-09T06:18:29.561Z,61.34
2017-04-09T06:19:39.597Z,61.34
2017-04-09T06:20:49.939Z,61.18
2017-04-09T06:22:00.272Z,61.28
2017-04-09T06:23:10.603Z,61.34
2017-04-09T06:24:20.951Z,61.28
2017-04-09T06:25:31.285Z,61.54
2017-04-09T06:26:41.613Z,61.57
2017-04-09T06:27:51.635Z,61.54
2017-04-09T06:29:01.961Z,61.44
2017-04-09T06:30:12.293Z,61.44
2017-04-09T06:31:22.316Z,61.28
2017-04-09T06:32:32.332Z,61.66
2017-04-09T06:33:42.673Z,61.47
2017-04-09T06:34:53.014Z,61.34
2017-04-09T06:36:03.031Z,61.47
2017-04-09T06:37:13.361Z,61.47
2017-04-09T06:38:23.699Z,61.57
2017-04-09T06:39:34.081Z,61.28
2017-04-09T06:40:44.099Z,61.76
2017-04-09T06:41:54.129Z,61.66
2017-04-09T06:43:04.454Z,60.8
2017-04-09T06:44:14.794Z,60.99
2017-04-09T06:45:25.143Z,61.08
2017-04-09T06:46:35.177Z,60.89
2017-04-09T06:47:45.504Z,61.28
2017-04-09T06:48:55.839Z,60.73
2017-04-09T06:50:06.171Z,60.83
2017-04-09T06:51:16.256Z,60.93
2017-04-09T06:52:26.279Z,61.02
2017-04-09T06:53:36.295Z,61.02
2017-04-09T06:54:46.636Z,60.73
2017-04-09T06:55:56.655Z,61.11
2017-04-09T06:57:06.997Z,60.73
2017-04-09T06:58:16.711Z,61.11
2017-04-09T06:59:27.056Z,60.64
2017-04-09T07:00:37.083Z,60.83
2017-04-09T07:01:47.412Z,60.93
2017-04-09T07:02:57.746Z,60.76
2017-04-09T07:04:08.080Z,60.96
2017-04-09T07:05:18.428Z,60.96
2017-04-09T07:06:28.770Z,61.05
2017-04-09T07:07:39.114Z,60.86
2017-04-09T07:08:48.831Z,61.05
2017-04-09T07:09:59.182Z,60.96
2017-04-09T07:11:09.229Z,60.86
2017-04-09T07:12:19.267Z,61.34
2017-04-09T07:13:29.606Z,61.05
2017-04-09T07:14:39.968Z,61.05
2017-04-09T07:15:49.990Z,60.96
2017-04-09T07:17:00.039Z,60.96
2017-04-09T07:18:10.064Z,60.96
2017-04-09T07:19:20.406Z,60.96
2017-04-09T07:20:30.767Z,60.89
2017-04-09T07:21:40.789Z,60.99
2017-04-09T07:22:51.131Z,61.08
2017-04-09T07:24:01.182Z,60.89
2017-04-09T07:25:11.549Z,60.99
2017-04-09T07:26:21.887Z,61.37
2017-04-09T07:27:31.950Z,60.89
2017-04-09T07:28:41.979Z,60.99
2017-04-09T07:29:52.320Z,60.89
2017-04-09T07:31:02.644Z,60.79
2017-04-09T07:32:12.673Z,60.7
2017-04-09T07:33:23.001Z,60.72
2017-04-09T07:34:33.037Z,60.72
2017-04-09T07:35:43.048Z,60.82
2017-04-09T07:36:53.388Z,60.92
2017-04-09T07:38:03.411Z,60.92
2017-04-09T07:39:13.744Z,61.21
2017-04-09T07:40:24.087Z,60.82
2017-04-09T07:41:34.109Z,60.82
2017-04-09T07:42:44.480Z,60.82
2017-04-09T07:43:54.512Z,60.92
2017-04-09T07:45:04.844Z,61.11
2017-04-09T07:46:14.885Z,61.11
2017-04-09T07:47:24.916Z,60.92
2017-04-09T07:48:35.256Z,60.82
2017-04-09T07:49:45.284Z,60.75
2017-04-09T07:50:55.626Z,61.24
2017-04-09T07:52:05.971Z,61.14
2017-04-09T07:53:16.555Z,60.75
2017-04-09T07:54:26.596Z,60.85
2017-04-09T07:55:36.931Z,60.95
2017-04-09T07:56:46.655Z,60.75
2017-04-09T07:57:56.995Z,60.88
2017-04-09T07:59:07.052Z,61.08
2017-04-09T08:00:17.090Z,60.88
2017-04-09T08:01:26.795Z,61.17
2017-04-09T08:02:37.149Z,60.69
2017-04-09T08:03:47.184Z,60.78
2017-04-09T08:04:57.529Z,60.78
2017-04-09T08:06:07.870Z,60.82
2017-04-09T08:07:18.249Z,60.91
2017-04-09T08:08:28.590Z,60.72
2017-04-09T08:09:38.620Z,60.82
2017-04-09T08:10:48.951Z,61.01
2017-04-09T08:11:58.985Z,60.66
2017-04-09T08:13:09.381Z,60.56
2017-04-09T08:14:19.415Z,61.14
2017-04-09T08:15:29.758Z,60.85
2017-04-09T08:16:39.819Z,60.75
2017-04-09T08:17:49.850Z,60.75
2017-04-09T08:19:00.229Z,61.04
2017-04-09T08:20:10.803Z,61.33
2017-04-09T08:21:21.131Z,60.75
2017-04-09T08:22:31.468Z,61.14
2017-04-09T08:23:41.493Z,61.04
2017-04-09T08:24:51.846Z,60.97
2017-04-09T08:26:01.908Z,60.88
2017-04-09T08:27:11.943Z,60.97
2017-04-09T08:28:21.958Z,60.97
2017-04-09T08:29:32.302Z,61.16
2017-04-09T08:30:42.632Z,60.97
2017-04-09T08:31:52.960Z,60.97
2017-04-09T08:33:03.310Z,60.78
2017-04-09T08:34:13.661Z,60.88
2017-04-09T08:35:24.008Z,60.78
2017-04-09T08:36:34.352Z,60.81
2017-04-09T08:37:44.365Z,60.91
2017-04-09T08:38:54.701Z,60.62
2017-04-09T08:40:05.044Z,61.19
2017-04-09T08:41:15.090Z,61
2017-04-09T08:42:24.808Z,61.04
2017-04-09T08:43:35.180Z,61.04
2017-04-09T08:44:45.524Z,61.13
2017-04-09T08:45:55.859Z,61.13
2017-04-09T08:47:05.886Z,61.13
2017-04-09T08:48:15.598Z,60.94
2017-04-09T08:49:25.339Z,60.55
2017-04-09T08:50:35.689Z,60.94
2017-04-09T08:51:46.026Z,60.84
2017-04-09T08:52:56.057Z,60.84
2017-04-09T08:54:06.404Z,60.75
2017-04-09T08:55:16.746Z,60.75
2017-04-09T08:56:27.107Z,60.94
2017-04-09T08:57:37.141Z,60.84
2017-04-09T08:58:47.493Z,60.75
2017-04-09T08:59:57.557Z,61.04
2017-04-09T09:01:07.885Z,61.07
2017-04-09T09:02:17.921Z,61.07
2017-04-09T09:03:27.322Z,61.16
2017-04-09T09:04:37.681Z,61.25
2017-04-09T09:05:47.404Z,61.25
2017-04-09T09:06:57.760Z,61.25
2017-04-09T09:08:08.125Z,60.97
2017-04-09T09:09:18.452Z,60.71
2017-04-09T09:10:28.789Z,60.52
2017-04-09T09:11:39.113Z,60.71
2017-04-09T09:12:49.448Z,60.61
2017-04-09T09:13:59.176Z,60.71
2017-04-09T09:15:09.235Z,60.61
2017-04-09T09:16:19.582Z,61.32
2017-04-09T09:17:29.609Z,61.32
2017-04-09T09:18:39.951Z,61.32
2017-04-09T09:19:50.288Z,61.32
2017-04-09T09:21:00.024Z,61.13
2017-04-09T09:22:10.374Z,61.22
2017-04-09T09:23:20.732Z,60.86
2017-04-09T09:24:31.065Z,61.06
2017-04-09T09:25:41.087Z,60.68
2017-04-09T09:26:51.448Z,60.77
2017-04-09T09:28:01.480Z,60.86
2017-04-09T09:29:11.502Z,60.58
2017-04-09T09:30:21.533Z,60.71
2017-04-09T09:31:31.251Z,60.89
2017-04-09T09:32:41.587Z,60.71
2017-04-09T09:33:51.943Z,60.71
2017-04-09T09:35:02.286Z,60.99
2017-04-09T09:36:12.311Z,60.8
2017-04-09T09:37:22.033Z,60.89
2017-04-09T09:38:32.375Z,60.61
2017-04-09T09:39:42.729Z,60.73
2017-04-09T09:40:52.765Z,60.61
2017-04-09T09:42:03.129Z,60.89
2017-04-09T09:43:13.469Z,60.89
2017-04-09T09:44:23.507Z,60.8
2017-04-09T09:45:33.531Z,60.61
2017-04-09T09:46:42.973Z,60.61
2017-04-09T09:47:53.031Z,60.89
2017-04-09T09:49:03.382Z,60.8
2017-04-09T09:50:13.113Z,60.61
2017-04-09T09:51:23.476Z,60.8
2017-04-09T09:52:33.510Z,60.61
2017-04-09T09:53:43.534Z,60.8
2017-04-09T09:54:53.563Z,60.8
2017-04-09T09:56:03.903Z,60.93
2017-04-09T09:57:13.924Z,60.64
2017-04-09T09:58:23.686Z,60.54
2017-04-09T09:59:33.402Z,61.02
2017-04-09T10:00:43.742Z,61.12
2017-04-09T10:01:53.774Z,61.12
2017-04-09T10:03:04.036Z,60.35
2017-04-09T10:04:14.342Z,60.35
2017-04-09T10:05:24.067Z,60.64
2017-04-09T10:06:34.408Z,60.54
2017-04-09T10:07:44.752Z,60.57
2017-04-09T10:08:55.081Z,60.57
2017-04-09T10:10:05.419Z,60.47
2017-04-09T10:11:15.766Z,60.47
2017-04-09T10:12:26.101Z,60.47
2017-04-09T10:13:36.144Z,60.67
2017-04-09T10:14:46.484Z,60.6
2017-04-09T10:15:56.525Z,60.5
2017-04-09T10:17:06.888Z,60.6
2017-04-09T10:18:17.231Z,60.72
2017-04-09T10:19:27.592Z,60.44
2017-04-09T10:20:37.626Z,60.05
2017-04-09T10:21:47.658Z,60.05
2017-04-09T10:22:58.225Z,60.44
2017-04-09T10:24:08.567Z,60.44
2017-04-09T10:25:18.938Z,60.37
2017-04-09T10:26:28.963Z,59.98
2017-04-09T10:27:39.358Z,59.98
2017-04-09T10:28:49.696Z,59.59
2017-04-09T10:29:59.742Z,59.69
2017-04-09T10:31:09.766Z,59.82
2017-04-09T10:32:19.802Z,59.53
2017-04-09T10:33:29.823Z,60.27
2017-04-09T10:34:39.854Z,60.66
2017-04-09T10:35:50.200Z,60.37
2017-04-09T10:37:00.594Z,61.11
2017-04-09T10:38:10.936Z,61.3
2017-04-09T10:39:21.271Z,62.05
2017-04-09T10:40:31.613Z,62.89
2017-04-09T10:41:41.962Z,62.89
2017-04-09T10:42:51.673Z,62.28
2017-04-09T10:44:01.999Z,61.51
2017-04-09T10:45:12.340Z,62.02
2017-04-09T10:46:22.691Z,62.18
2017-04-09T10:47:33.041Z,62.82
2017-04-09T10:48:43.374Z,62.34
2017-04-09T10:49:53.720Z,61.19
2017-04-09T10:51:04.061Z,60.57
2017-04-09T10:52:14.070Z,60.47
2017-04-09T10:53:24.410Z,59.92
2017-04-09T10:54:34.436Z,60.14
2017-04-09T10:55:44.777Z,60.63
2017-04-09T10:56:55.106Z,60.34
2017-04-09T10:58:05.468Z,60.44
2017-04-09T10:59:15.527Z,60.27
2017-04-09T11:00:25.570Z,60.57
2017-04-09T11:01:35.903Z,60.27
2017-04-09T11:02:45.966Z,60.37
2017-04-09T11:03:56.335Z,60.27
2017-04-09T11:05:06.365Z,60.27
2017-04-09T11:06:16.405Z,60.27
2017-04-09T11:07:25.831Z,60.27
2017-04-09T11:08:36.178Z,60.27
2017-04-09T11:09:46.196Z,60.08
2017-04-09T11:10:56.227Z,60.21
2017-04-09T11:12:06.573Z,60.4
2017-04-09T11:13:16.643Z,60.27
2017-04-09T11:14:26.978Z,60.11
2017-04-09T11:15:37.006Z,60.3
2017-04-09T11:16:47.347Z,60.21
2017-04-09T11:17:57.687Z,60.3
2017-04-09T11:19:07.704Z,60.33
2017-04-09T11:20:17.441Z,60.24
2017-04-09T11:21:27.475Z,60.43
2017-04-09T11:22:37.809Z,60.62
2017-04-09T11:23:48.182Z,60.33
2017-04-09T11:24:58.520Z,60.62
2017-04-09T11:26:08.545Z,60.62
2017-04-09T11:27:18.872Z,60.43
2017-04-09T11:28:29.233Z,60.33
2017-04-09T11:29:39.289Z,60.62
2017-04-09T11:30:49.027Z,60.43
2017-04-09T11:31:59.077Z,60.62
2017-04-09T11:33:09.100Z,60.14
2017-04-09T11:34:19.454Z,60.27
2017-04-09T11:35:29.834Z,60.91
2017-04-09T11:36:40.175Z,60.52
2017-04-09T11:37:49.942Z,60.69
2017-04-09T11:39:00.294Z,61.08
2017-04-09T11:40:10.026Z,61.08
2017-04-09T11:41:20.357Z,61.43
2017-04-09T11:42:30.707Z,60.57
2017-04-09T11:43:40.740Z,60.69
2017-04-09T11:44:50.765Z,61.01
2017-04-09T11:46:01.114Z,61.43
2017-04-09T11:47:11.465Z,62.27
2017-04-09T11:48:21.822Z,62.82
2017-04-09T11:49:32.163Z,62.89
2017-04-09T11:50:42.495Z,62.57
2017-04-09T11:51:52.531Z,63.34
2017-04-09T11:53:02.868Z,63.12
2017-04-09T11:54:13.212Z,62.92
2017-04-09T11:55:23.548Z,62.92
2017-04-09T11:56:33.585Z,62.99
2017-04-09T11:57:43.919Z,62.79
2017-04-09T11:58:54.277Z,62.15
2017-04-09T12:00:04.600Z,61.12
2017-04-09T12:01:14.952Z,60.38
2017-04-09T12:02:24.989Z,60.38
2017-04-09T12:03:35.034Z,59.66
2017-04-09T12:04:45.385Z,59.56
2017-04-09T12:05:55.413Z,59.31
2017-04-09T12:07:05.470Z,59.69
2017-04-09T12:08:15.821Z,59.59
2017-04-09T12:09:25.854Z,60.37
2017-04-09T12:10:36.216Z,60.27
2017-04-09T12:11:46.555Z,60.08
2017-04-09T12:12:56.882Z,60.57
2017-04-09T12:14:06.911Z,61.3
2017-04-09T12:15:17.302Z,60.92
2017-04-09T12:16:27.654Z,61.37
2017-04-09T12:17:37.994Z,60.72
2017-04-09T12:18:48.353Z,60.92
2017-04-09T12:19:57.754Z,60.72
2017-04-09T12:21:08.093Z,60.44
2017-04-09T12:22:18.444Z,61.02
2017-04-09T12:23:28.789Z,61.3
2017-04-09T12:24:39.128Z,60.82
2017-04-09T12:25:49.493Z,61.11
2017-04-09T12:26:59.514Z,61.37
2017-04-09T12:28:09.231Z,61.08
2017-04-09T12:29:19.573Z,61.57
2017-04-09T12:30:29.938Z,61.27
2017-04-09T12:31:40.285Z,60.69
2017-04-09T12:32:50.629Z,60.63
2017-04-09T12:34:00.683Z,59.59
2017-04-09T12:35:11.035Z,59.53
2017-04-09T12:36:21.381Z,59.53
2017-04-09T12:37:31.710Z,59.56
2017-04-09T12:38:42.065Z,59.56
2017-04-09T12:39:52.087Z,60.62
2017-04-09T12:41:02.114Z,60.85
2017-04-09T12:42:12.466Z,61.24
2017-04-09T12:43:22.175Z,61.89
2017-04-09T12:44:32.524Z,61.86
2017-04-09T12:45:42.864Z,61.86
2017-04-09T12:46:53.223Z,62.5
2017-04-09T12:48:03.257Z,62.4
2017-04-09T12:49:13.612Z,62.5
2017-04-09T12:50:23.642Z,61.92
2017-04-09T12:51:33.674Z,61.92
2017-04-09T12:52:44.024Z,61.92
2017-04-09T12:53:54.385Z,61.44
2017-04-09T12:55:04.722Z,60.47
2017-04-09T12:56:15.072Z,60.5
2017-04-09T12:57:25.415Z,60.34
2017-04-09T12:58:35.744Z,60.53
2017-04-09T12:59:46.104Z,60.47
2017-04-09T13:00:56.155Z,60.27
2017-04-09T13:02:06.485Z,60.17
2017-04-09T13:03:16.530Z,60.57
2017-04-09T13:04:26.560Z,60.27
2017-04-09T13:05:36.658Z,60.3
2017-04-09T13:06:46.689Z,60.4
2017-04-09T13:07:56.424Z,60.01
2017-04-09T13:09:06.461Z,60.3
2017-04-09T13:10:16.504Z,60.5
2017-04-09T13:11:26.884Z,60.69
2017-04-09T13:12:36.907Z,60.21
2017-04-09T13:13:46.965Z,60.98
2017-04-09T13:14:57.332Z,60.78
2017-04-09T13:16:07.692Z,60.5
2017-04-09T13:17:18.032Z,60.98
2017-04-09T13:18:28.409Z,60.59
2017-04-09T13:19:38.807Z,60.4
2017-04-09T13:20:49.155Z,60.69
2017-04-09T13:21:59.506Z,60.57
2017-04-09T13:23:09.835Z,60.69
2017-04-09T13:24:20.169Z,60.59
2017-04-09T13:25:30.224Z,60.4
2017-04-09T13:26:40.581Z,60.3
2017-04-09T13:27:50.920Z,60.3
2017-04-09T13:29:01.266Z,60.43
2017-04-09T13:30:11.607Z,60.43
2017-04-09T13:31:21.954Z,60.62
2017-04-09T13:32:32.295Z,60.52
2017-04-09T13:33:42.332Z,60.82
2017-04-09T13:34:52.680Z,60.52
2017-04-09T13:36:02.747Z,60.62
2017-04-09T13:37:12.788Z,60.52
2017-04-09T13:38:22.826Z,60.43
2017-04-09T13:39:32.556Z,60.62
2017-04-09T13:40:42.902Z,60.62
2017-04-09T13:41:53.241Z,60.62
2017-04-09T13:43:03.271Z,60.52
2017-04-09T13:44:13.619Z,60.78
2017-04-09T13:45:23.965Z,60.59
2017-04-09T13:46:34.352Z,60.59
2017-04-09T13:47:44.690Z,60.59
2017-04-09T13:48:54.422Z,60.5
2017-04-09T13:50:04.758Z,60.78
2017-04-09T13:51:14.819Z,60.59
2017-04-09T13:52:24.911Z,60.69
2017-04-09T13:53:35.255Z,61.27
2017-04-09T13:54:45.587Z,60.5
2017-04-09T13:55:55.589Z,60.78
2017-04-09T13:57:05.942Z,60.47
2017-04-09T13:58:16.283Z,60.59
2017-04-09T13:59:26.325Z,60.78
2017-04-09T14:00:36.924Z,60.59
2017-04-09T14:01:47.259Z,60.66
2017-04-09T14:02:57.600Z,60.75
2017-04-09T14:04:07.634Z,60.66
2017-04-09T14:05:17.671Z,60.57
2017-04-09T14:06:28.031Z,60.75
2017-04-09T14:07:38.073Z,60.75
2017-04-09T14:08:47.806Z,60.66
2017-04-09T14:09:57.831Z,60.66
2017-04-09T14:11:08.226Z,60.47
2017-04-09T14:12:18.584Z,61.15
2017-04-09T14:13:28.941Z,60.47
2017-04-09T14:14:39.280Z,60.57
2017-04-09T14:15:49.312Z,60.57
2017-04-09T14:16:59.670Z,60.66
2017-04-09T14:18:10.010Z,60.47
2017-04-09T14:19:20.060Z,61.15
2017-04-09T14:20:30.434Z,60.85
2017-04-09T14:21:40.753Z,60.95
2017-04-09T14:22:51.120Z,61.15
2017-04-09T14:24:01.462Z,60.75
2017-04-09T14:25:11.495Z,60.75
2017-04-09T14:26:21.855Z,61.33
2017-04-09T14:27:32.214Z,60.95
2017-04-09T14:28:42.628Z,60.95
2017-04-09T14:29:52.644Z,60.85
2017-04-09T14:31:02.657Z,61.05
2017-04-09T14:32:13.003Z,60.75
2017-04-09T14:33:23.031Z,60.75
2017-04-09T14:34:32.757Z,60.95
2017-04-09T14:35:42.803Z,60.85
2017-04-09T14:36:52.846Z,61.15
2017-04-09T14:38:03.183Z,61.33
2017-04-09T14:39:13.238Z,61.11
2017-04-09T14:40:23.582Z,61.5
2017-04-09T14:41:33.919Z,61.3
2017-04-09T14:42:43.628Z,61.4
2017-04-09T14:43:53.962Z,61.4
2017-04-09T14:45:04.302Z,61.21
2017-04-09T14:46:14.365Z,61.5
2017-04-09T14:47:24.397Z,61.3
2017-04-09T14:48:34.735Z,61.3
2017-04-09T14:49:44.758Z,61.21
2017-04-09T14:50:54.802Z,61.3
2017-04-09T14:52:04.853Z,61.27
2017-04-09T14:53:14.880Z,61.18
2017-04-09T14:54:25.227Z,61.27
2017-04-09T14:55:35.275Z,60.99
2017-04-09T14:56:45.627Z,61.27
2017-04-09T14:57:55.984Z,60.79
2017-04-09T14:59:06.333Z,60.99
2017-04-09T15:00:16.689Z,61.08
2017-04-09T15:01:27.027Z,61.08
2017-04-09T15:02:37.379Z,60.89
2017-04-09T15:03:47.436Z,61.25
2017-04-09T15:04:57.782Z,60.89
2017-04-09T15:06:07.827Z,61.27
2017-04-09T15:07:18.162Z,61.27
2017-04-09T15:08:28.208Z,61.15
2017-04-09T15:09:38.539Z,61.18
2017-04-09T15:10:48.263Z,61.05
2017-04-09T15:11:58.627Z,61.44
2017-04-09T15:13:08.960Z,61.05
2017-04-09T15:14:19.016Z,61.44
2017-04-09T15:15:29.379Z,61.15
2017-04-09T15:16:39.399Z,61.15
2017-04-09T15:17:49.112Z,61.15
2017-04-09T15:18:59.471Z,61.25
2017-04-09T15:20:09.508Z,61.25
2017-04-09T15:21:19.861Z,61.15
2017-04-09T15:22:30.213Z,61.63
2017-04-09T15:23:40.561Z,61.25
2017-04-09T15:24:50.922Z,61.34
2017-04-09T15:26:01.274Z,61.63
2017-04-09T15:27:11.312Z,61.63
2017-04-09T15:28:21.656Z,61.73
2017-04-09T15:29:31.415Z,61.54
2017-04-09T15:30:41.469Z,62.21
2017-04-09T15:31:51.820Z,62.31
2017-04-09T15:33:02.173Z,62.12
2017-04-09T15:34:12.527Z,62.02
2017-04-09T15:35:22.561Z,62.21
2017-04-09T15:36:32.600Z,61.83
2017-04-09T15:37:42.946Z,62.12
2017-04-09T15:38:53.350Z,62.12
2017-04-09T15:40:03.694Z,62.31
2017-04-09T15:41:14.032Z,62.12